createdAt,value
2024-04-23T00:00:16.678Z,79.42
2024-04-23T00:01:16.719Z,86.00
2024-04-23T00:02:16.705Z,85.05
2024-04-23T00:03:16.722Z,85.35
2024-04-23T00:04:16.722Z,84.71
2024-04-23T00:05:16.830Z,80.71
2024-04-23T00:06:16.818Z,76.64
2024-04-23T00:07:16.871Z,81.01
2024-04-23T00:08:16.946Z,77.79
2024-04-23T00:09:17.019Z,73.82
2024-04-23T00:10:17.124Z,70.28
2024-04-23T00:11:17.314Z,73.45
2024-04-23T00:12:17.322Z,69.09
2024-04-23T00:13:17.341Z,67.45
2024-04-23T00:14:17.451Z,75.13
2024-04-23T00:15:17.541Z,75.15
2024-04-23T00:16:17.622Z,72.62
2024-04-23T00:17:17.702Z,72.68
2024-04-23T00:18:17.885Z,70.50
2024-04-23T00:19:17.856Z,71.76
2024-04-23T00:20:17.951Z,74.90
2024-04-23T00:21:18.031Z,67.74
2024-04-23T00:22:18.112Z,69.85
2024-04-23T00:23:18.190Z,72.43
2024-04-23T00:24:18.315Z,75.14
2024-04-23T00:25:18.367Z,75.29
2024-04-23T00:26:18.461Z,74.27
2024-04-23T00:27:18.520Z,72.54
2024-04-23T00:28:18.640Z,75.47
2024-04-23T00:29:18.706Z,72.24
2024-04-23T00:30:18.816Z,74.93
2024-04-23T00:31:18.881Z,76.69
2024-04-23T00:32:19.029Z,75.60
2024-04-23T00:33:19.087Z,73.37
2024-04-23T00:34:19.122Z,80.27
2024-04-23T00:35:19.215Z,79.38
2024-04-23T00:36:19.288Z,79.26
2024-04-23T00:37:19.403Z,79.74
2024-04-23T00:38:19.458Z,79.04
2024-04-23T00:39:19.574Z,76.98
2024-04-23T00:40:19.646Z,78.56
2024-04-23T00:41:19.711Z,76.57
2024-04-23T00:42:19.818Z,76.42
2024-04-23T00:43:19.920Z,77.69
2024-04-23T00:44:20.004Z,73.81
2024-04-23T00:45:20.073Z,74.97
2024-04-23T00:46:20.168Z,78.04
2024-04-23T00:47:20.304Z,75.65
2024-04-23T00:48:20.485Z,78.96
2024-04-23T00:49:20.447Z,79.61
2024-04-23T00:50:20.518Z,78.57
2024-04-23T00:51:20.600Z,79.07
2024-04-23T00:52:20.712Z,76.54
2024-04-23T00:53:20.799Z,79.12
2024-04-23T00:54:20.881Z,80.57
2024-04-23T00:55:20.940Z,77.48
2024-04-23T00:56:21.044Z,83.35
2024-04-23T00:57:21.115Z,77.75
2024-04-23T00:58:21.208Z,81.47
2024-04-23T00:59:21.298Z,83.35
2024-04-23T01:00:21.379Z,81.56
2024-04-23T01:01:21.439Z,80.16
2024-04-23T01:02:21.536Z,79.45
2024-04-23T01:03:21.706Z,79.04
2024-04-23T01:04:21.722Z,82.54
2024-04-23T01:05:21.821Z,82.79
2024-04-23T01:06:21.889Z,87.56
2024-04-23T01:07:21.949Z,78.63
2024-04-23T01:08:22.019Z,77.57
2024-04-23T01:09:22.120Z,78.26
2024-04-23T01:10:22.182Z,74.98
2024-04-23T01:11:22.332Z,74.87
2024-04-23T01:12:22.358Z,72.18
2024-04-23T01:13:22.439Z,75.52
2024-04-23T01:14:22.555Z,73.97
2024-04-23T01:15:22.638Z,73.71
2024-04-23T01:16:22.700Z,75.14
2024-04-23T01:17:22.865Z,79.51
2024-04-23T01:18:22.926Z,73.30
2024-04-23T01:19:22.974Z,79.04
2024-04-23T01:20:23.063Z,75.51
2024-04-23T01:21:23.129Z,72.25
2024-04-23T01:22:23.239Z,69.40
2024-04-23T01:23:23.316Z,70.04
2024-04-23T01:24:23.426Z,68.28
2024-04-23T01:25:23.493Z,68.36
2024-04-23T01:26:23.572Z,68.75
2024-04-23T01:27:23.643Z,71.57
2024-04-23T01:28:23.752Z,70.57
2024-04-23T01:29:23.840Z,71.55
2024-04-23T01:30:23.925Z,73.79
2024-04-23T01:31:24.152Z,73.14
2024-04-23T01:32:24.186Z,71.73
2024-04-23T01:33:24.270Z,74.73
2024-04-23T01:34:24.321Z,68.59
2024-04-23T01:35:24.316Z,77.55
2024-04-23T01:36:24.395Z,75.94
2024-04-23T01:37:24.582Z,73.18
2024-04-23T01:38:24.572Z,71.00
2024-04-23T01:39:24.648Z,71.53
2024-04-23T01:40:24.772Z,74.10
2024-04-23T01:41:24.833Z,73.19
2024-04-23T01:42:24.921Z,77.73
2024-04-23T01:43:25.048Z,76.88
2024-04-23T01:44:25.108Z,74.53
2024-04-23T01:45:25.180Z,77.68
2024-04-23T01:46:25.321Z,79.52
2024-04-23T01:47:25.437Z,79.46
2024-04-23T01:48:25.451Z,76.78
2024-04-23T01:49:25.568Z,81.95
2024-04-23T01:50:25.592Z,82.94
2024-04-23T01:51:25.650Z,80.45
2024-04-23T01:52:25.822Z,79.69
2024-04-23T01:53:25.846Z,84.19
2024-04-23T01:54:25.922Z,87.28
2024-04-23T01:55:26.007Z,86.40
2024-04-23T01:56:26.102Z,85.24
2024-04-23T01:57:26.177Z,87.39
2024-04-23T01:58:26.301Z,87.50
2024-04-23T01:59:26.390Z,84.93
2024-04-23T02:00:26.429Z,83.58
2024-04-23T02:01:26.548Z,85.74
2024-04-23T02:02:26.623Z,83.62
2024-04-23T02:03:26.712Z,84.14
2024-04-23T02:04:26.810Z,90.28
2024-04-23T02:05:26.861Z,89.53
2024-04-23T02:06:26.960Z,90.12
2024-04-23T02:07:27.056Z,89.29
2024-04-23T02:08:27.097Z,84.14
2024-04-23T02:09:27.192Z,86.33
2024-04-23T02:10:27.314Z,88.79
2024-04-23T02:11:27.440Z,81.51
2024-04-23T02:12:27.480Z,82.71
2024-04-23T02:13:27.554Z,87.58
2024-04-23T02:14:27.606Z,90.13
2024-04-23T02:15:27.671Z,89.43
2024-04-23T02:16:27.747Z,86.12
2024-04-23T02:17:27.894Z,90.12
2024-04-23T02:18:28.128Z,93.84
2024-04-23T02:19:28.031Z,83.65
2024-04-23T02:20:28.107Z,86.89
2024-04-23T02:21:28.171Z,85.26
2024-04-23T02:22:28.284Z,84.26
2024-04-23T02:23:28.352Z,84.83
2024-04-23T02:24:28.446Z,88.05
2024-04-23T02:25:28.538Z,85.64
2024-04-23T02:26:28.617Z,88.27
2024-04-23T02:27:28.706Z,86.16
2024-04-23T02:28:28.792Z,84.56
2024-04-23T02:29:28.844Z,83.17
2024-04-23T02:30:28.930Z,84.51
2024-04-23T02:31:29.033Z,87.89
2024-04-23T02:32:29.158Z,89.21
2024-04-23T02:33:29.260Z,87.43
2024-04-23T02:34:29.349Z,89.38
2024-04-23T02:35:29.384Z,90.06
2024-04-23T02:36:29.441Z,93.12
2024-04-23T02:37:29.584Z,86.47
2024-04-23T02:38:29.609Z,87.58
2024-04-23T02:39:29.710Z,86.21
2024-04-23T02:40:29.943Z,82.64
2024-04-23T02:41:29.889Z,88.63
2024-04-23T02:42:29.966Z,89.44
2024-04-23T02:43:30.073Z,90.06
2024-04-23T02:44:30.120Z,94.08
2024-04-23T02:45:31.870Z,86.38
2024-04-23T02:46:30.231Z,93.78
2024-04-23T02:47:30.386Z,90.22
2024-04-23T02:48:30.392Z,91.98
2024-04-23T02:49:30.365Z,93.02
2024-04-23T02:50:30.370Z,95.64
2024-04-23T02:51:30.394Z,93.76
2024-04-23T02:52:30.476Z,91.72
2024-04-23T02:53:30.472Z,92.49
2024-04-23T02:54:30.598Z,94.56
2024-04-23T02:55:30.683Z,92.10
2024-04-23T02:56:30.756Z,92.30
2024-04-23T02:57:30.835Z,92.98
2024-04-23T02:58:30.973Z,83.54
2024-04-23T02:59:31.050Z,88.38
2024-04-23T03:00:31.165Z,84.75
2024-04-23T03:01:31.232Z,84.45
2024-04-23T03:02:31.390Z,82.08
2024-04-23T03:03:31.414Z,83.32
2024-04-23T03:04:31.555Z,84.22
2024-04-23T03:05:31.547Z,78.62
2024-04-23T03:06:31.626Z,82.96
2024-04-23T03:07:31.727Z,83.98
2024-04-23T03:08:34.619Z,87.34
2024-04-23T03:09:31.798Z,87.39
2024-04-23T03:10:31.797Z,87.39
2024-04-23T03:11:31.866Z,87.77
2024-04-23T03:12:31.786Z,89.07
2024-04-23T03:13:31.873Z,82.64
2024-04-23T03:14:31.822Z,84.45
2024-04-23T03:15:31.798Z,80.07
2024-04-23T03:16:31.832Z,84.14
2024-04-23T03:17:31.854Z,85.14
2024-04-23T03:18:31.859Z,83.28
2024-04-23T03:19:31.856Z,85.90
2024-04-23T03:20:31.846Z,88.53
2024-04-23T03:21:31.866Z,87.40
2024-04-23T03:22:31.838Z,84.14
2024-04-23T03:23:31.832Z,86.46
2024-04-23T03:24:31.836Z,85.09
2024-04-23T03:25:31.837Z,78.70
2024-04-23T03:26:31.830Z,83.24
2024-04-23T03:27:31.826Z,80.15
2024-04-23T03:28:31.856Z,83.41
2024-04-23T03:29:31.828Z,85.42
2024-04-23T03:30:31.820Z,81.01
2024-04-23T03:31:31.850Z,84.48
2024-04-23T03:32:31.870Z,82.88
2024-04-23T03:33:31.864Z,84.37
2024-04-23T03:34:31.816Z,87.51
2024-04-23T03:35:31.811Z,82.61
2024-04-23T03:36:31.923Z,81.13
2024-04-23T03:37:32.066Z,88.32
2024-04-23T03:38:32.079Z,92.22
2024-04-23T03:39:32.159Z,88.95
2024-04-23T03:40:32.332Z,90.87
2024-04-23T03:41:32.340Z,86.35
2024-04-23T03:42:32.431Z,88.68
2024-04-23T03:43:32.554Z,87.69
2024-04-23T03:44:34.902Z,91.14
2024-04-23T03:45:32.589Z,93.30
2024-04-23T03:46:32.626Z,92.17
2024-04-23T03:47:32.713Z,89.60
2024-04-23T03:48:32.623Z,89.11
2024-04-23T03:49:32.713Z,93.80
2024-04-23T03:50:32.643Z,92.65
2024-04-23T03:51:32.608Z,91.38
2024-04-23T03:52:32.621Z,95.84
2024-04-23T03:53:32.631Z,94.03
2024-04-23T03:54:32.638Z,87.82
2024-04-23T03:55:32.637Z,94.87
2024-04-23T03:56:32.625Z,94.45
2024-04-23T03:57:32.630Z,92.92
2024-04-23T03:58:32.632Z,91.02
2024-04-23T03:59:32.587Z,90.49
2024-04-23T04:00:32.631Z,91.12
2024-04-23T04:02:11.303Z,50.00
2024-04-23T04:03:11.198Z,50.00
2024-04-23T04:04:11.182Z,50.00
2024-04-23T04:05:11.186Z,50.00
2024-04-23T04:06:11.178Z,50.00
2024-04-23T04:07:11.157Z,51.04
2024-04-23T04:08:11.185Z,50.00
2024-04-23T04:09:11.181Z,60.14
2024-04-23T04:10:11.209Z,58.99
2024-04-23T04:11:11.262Z,58.02
2024-04-23T04:12:11.227Z,56.75
2024-04-23T04:13:20.934Z,63.06
2024-04-23T04:14:12.217Z,63.19
2024-04-23T04:15:11.180Z,63.94
2024-04-23T04:16:11.211Z,63.11
2024-04-23T04:17:11.269Z,64.11
2024-04-23T04:18:11.275Z,66.28
2024-04-23T04:19:11.187Z,62.60
2024-04-23T04:20:11.291Z,67.65
2024-04-23T04:21:11.212Z,63.84
2024-04-23T04:22:11.229Z,62.88
2024-04-23T04:23:11.238Z,61.75
2024-04-23T04:24:11.216Z,66.87
2024-04-23T04:25:11.232Z,62.73
2024-04-23T04:26:11.336Z,63.95
2024-04-23T04:27:11.312Z,60.32
2024-04-23T04:28:11.388Z,64.34
2024-04-23T04:29:11.519Z,57.22
2024-04-23T04:30:11.553Z,60.02
2024-04-23T04:31:11.754Z,54.40
2024-04-23T04:32:19.151Z,50.00
2024-04-23T04:33:19.199Z,50.00
2024-04-23T04:34:21.763Z,50.00
2024-04-23T04:35:19.054Z,50.00
2024-04-23T04:36:19.059Z,50.00
2024-04-23T04:37:19.066Z,50.00
2024-04-23T04:38:19.051Z,50.00
2024-04-23T04:39:19.069Z,50.00
2024-04-23T04:40:19.132Z,54.79
2024-04-23T04:41:19.234Z,51.66
2024-04-23T04:42:19.112Z,53.61
2024-04-23T04:43:19.138Z,51.65
2024-04-23T04:44:19.130Z,52.01
2024-04-23T04:45:19.278Z,56.12
2024-04-23T04:46:19.129Z,49.94
2024-04-23T04:47:19.360Z,53.01
2024-04-23T04:48:19.229Z,55.86
2024-04-23T04:49:19.163Z,54.56
2024-04-23T04:50:19.271Z,51.67
2024-04-23T04:51:19.156Z,56.29
2024-04-23T04:52:19.133Z,55.48
2024-04-23T04:53:19.163Z,57.15
2024-04-23T04:54:19.151Z,58.70
2024-04-23T04:55:19.161Z,53.28
2024-04-23T04:56:19.133Z,58.51
2024-04-23T04:57:19.155Z,55.65
2024-04-23T04:58:19.151Z,58.81
2024-04-23T04:59:19.163Z,55.31
2024-04-23T05:00:43.958Z,59.55
2024-04-23T05:01:19.140Z,59.96
2024-04-23T05:02:19.179Z,61.01
2024-04-23T05:03:19.166Z,62.64
2024-04-23T05:04:19.234Z,63.78
2024-04-23T05:05:19.175Z,64.54
2024-04-23T05:06:19.210Z,64.14
2024-04-23T05:07:19.199Z,62.68
2024-04-23T05:08:19.715Z,61.59
2024-04-23T05:09:19.168Z,63.69
2024-04-23T05:10:19.176Z,60.98
2024-04-23T05:11:19.200Z,60.48
2024-04-23T05:12:19.281Z,62.70
2024-04-23T05:13:19.164Z,58.91
2024-04-23T05:14:19.213Z,57.34
2024-04-23T05:15:19.179Z,57.93
2024-04-23T05:16:19.195Z,60.64
2024-04-23T05:17:19.222Z,61.03
2024-04-23T05:18:19.223Z,61.54
2024-04-23T05:19:19.177Z,59.54
2024-04-23T05:20:19.251Z,63.31
2024-04-23T05:21:19.346Z,59.10
2024-04-23T05:22:19.400Z,59.55
2024-04-23T05:23:19.473Z,64.33
2024-04-23T05:24:19.819Z,61.03
2024-04-23T05:25:19.595Z,62.92
2024-04-23T05:26:19.671Z,63.27
2024-04-23T05:27:19.720Z,61.53
2024-04-23T05:28:19.814Z,64.92
2024-04-23T05:29:19.895Z,64.84
2024-04-23T05:30:19.949Z,63.82
2024-04-23T05:31:20.024Z,65.55
2024-04-23T05:32:20.579Z,66.24
2024-04-23T05:33:20.222Z,64.57
2024-04-23T05:34:20.779Z,67.82
2024-04-23T05:35:20.332Z,67.76
2024-04-23T05:36:20.339Z,68.77
2024-04-23T05:37:20.447Z,67.29
2024-04-23T05:38:20.525Z,77.91
2024-04-23T05:39:20.598Z,84.11
2024-04-23T05:40:20.653Z,100.41
2024-04-23T05:41:21.703Z,107.67
2024-04-23T05:42:20.802Z,114.52
2024-04-23T05:43:20.885Z,121.17
2024-04-23T05:44:23.385Z,122.01
2024-04-23T05:46:43.421Z,127.72
2024-04-23T05:47:21.043Z,128.60
2024-04-23T05:48:21.053Z,138.14
2024-04-23T05:49:21.288Z,161.08
2024-04-23T05:50:26.007Z,193.12
2024-04-23T05:51:23.750Z,131.17
2024-04-23T05:52:29.524Z,147.24
2024-04-23T05:53:21.964Z,132.34
2024-04-23T05:54:20.959Z,151.53
2024-04-23T05:55:20.952Z,184.29
2024-04-23T05:56:21.002Z,235.22
2024-04-23T05:57:20.950Z,310.36
2024-04-23T05:58:20.987Z,203.22
2024-04-23T05:59:21.249Z,197.77
2024-04-23T06:00:21.003Z,198.39
2024-04-23T06:01:20.975Z,200.90
2024-04-23T06:02:20.958Z,199.83
2024-04-23T06:03:21.099Z,203.70
2024-04-23T06:04:21.083Z,202.09
2024-04-23T06:05:21.051Z,200.56
2024-04-23T06:06:21.113Z,204.45
2024-04-23T06:07:21.132Z,197.49
2024-04-23T06:08:21.265Z,191.64
2024-04-23T06:09:21.271Z,201.43
2024-04-23T06:10:21.222Z,201.82
2024-04-23T06:11:21.343Z,199.65
2024-04-23T06:12:21.260Z,202.03
2024-04-23T06:13:21.344Z,202.73
2024-04-23T06:14:21.759Z,202.98
2024-04-23T06:15:21.559Z,192.07
2024-04-23T06:16:21.599Z,187.26
2024-04-23T06:17:28.737Z,192.20
2024-04-23T06:18:22.783Z,192.56
2024-04-23T06:19:21.723Z,193.04
2024-04-23T06:20:21.756Z,195.33
2024-04-23T06:21:21.714Z,196.18
2024-04-23T06:22:21.710Z,200.45
2024-04-23T06:23:21.715Z,197.20
2024-04-23T06:24:21.762Z,195.22
2024-04-23T06:25:21.724Z,194.64
2024-04-23T06:26:21.738Z,200.00
2024-04-23T06:27:21.861Z,195.85
2024-04-23T06:28:21.951Z,190.66
2024-04-23T06:29:22.052Z,187.45
2024-04-23T06:30:23.030Z,187.66
2024-04-23T06:31:22.016Z,188.08
2024-04-23T06:32:22.199Z,190.59
2024-04-23T06:33:22.792Z,196.48
2024-04-23T06:34:22.332Z,200.47
2024-04-23T06:35:22.101Z,197.07
2024-04-23T06:36:22.062Z,195.29
2024-04-23T06:37:23.995Z,196.35
2024-04-23T06:38:22.134Z,196.41
2024-04-23T06:39:22.309Z,190.91
2024-04-23T06:40:22.168Z,185.40
2024-04-23T06:41:22.203Z,180.14
2024-04-23T06:42:22.265Z,176.83
2024-04-23T06:43:27.356Z,172.65
2024-04-23T06:44:23.778Z,172.66
2024-04-23T06:45:22.287Z,168.66
2024-04-23T06:46:22.284Z,165.64
2024-04-23T06:47:22.362Z,162.37
2024-04-23T06:48:22.377Z,162.08
2024-04-23T06:49:22.300Z,161.93
2024-04-23T06:50:22.288Z,161.75
2024-04-23T06:51:22.331Z,162.24
2024-04-23T06:52:22.280Z,164.13
2024-04-23T06:53:22.276Z,162.78
2024-04-23T06:54:22.282Z,162.81
2024-04-23T06:55:22.314Z,161.76
2024-04-23T06:56:22.288Z,160.66
2024-04-23T06:57:22.274Z,160.66
2024-04-23T06:58:24.407Z,160.52
2024-04-23T06:59:22.414Z,160.68
2024-04-23T07:00:22.808Z,160.33
2024-04-23T07:01:22.627Z,159.93
2024-04-23T07:02:22.945Z,160.07
2024-04-23T07:03:22.809Z,160.62
2024-04-23T07:04:22.855Z,161.55
2024-04-23T07:05:22.948Z,161.11
2024-04-23T07:06:23.049Z,161.52
2024-04-23T07:07:23.150Z,162.38
2024-04-23T07:08:23.199Z,162.11
2024-04-23T07:09:23.326Z,162.94
2024-04-23T07:10:23.479Z,162.94
2024-04-23T07:11:23.662Z,162.42
2024-04-23T07:12:23.633Z,162.84
2024-04-23T07:13:23.748Z,163.67
2024-04-23T07:14:23.797Z,163.54
2024-04-23T07:15:23.916Z,164.09
2024-04-23T07:16:24.027Z,165.96
2024-04-23T07:17:24.197Z,166.33
2024-04-23T07:18:24.327Z,166.88
2024-04-23T07:19:24.303Z,168.63
2024-04-23T07:20:24.453Z,170.73
2024-04-23T07:21:24.522Z,172.00
2024-04-23T07:22:24.615Z,172.45
2024-04-23T07:23:24.737Z,173.34
2024-04-23T07:24:24.768Z,173.23
2024-04-23T07:25:25.385Z,173.27
2024-04-23T07:26:24.891Z,172.67
2024-04-23T07:27:24.950Z,173.48
2024-04-23T07:28:24.971Z,173.57
2024-04-23T07:29:25.004Z,174.68
2024-04-23T07:30:25.502Z,174.28
2024-04-23T07:31:25.137Z,175.40
2024-04-23T07:32:25.271Z,174.51
2024-04-23T07:33:25.379Z,175.17
2024-04-23T07:34:25.252Z,175.64
2024-04-23T07:35:25.429Z,170.57
2024-04-23T07:36:25.352Z,165.68
2024-04-23T07:37:25.421Z,160.92
2024-04-23T07:38:25.487Z,156.66
2024-04-23T07:39:25.586Z,153.76
2024-04-23T07:40:25.776Z,152.07
2024-04-23T07:41:25.802Z,149.38
2024-04-23T07:42:25.893Z,146.16
2024-04-23T07:43:26.483Z,141.42
2024-04-23T07:44:26.805Z,139.63
2024-04-23T07:45:26.316Z,140.93
2024-04-23T07:46:26.251Z,132.42
2024-04-23T07:47:26.386Z,120.56
2024-04-23T07:48:26.505Z,107.51
2024-04-23T07:49:26.532Z,102.12
2024-04-23T07:50:26.620Z,100.54
2024-04-23T07:51:29.124Z,100.93
2024-04-23T07:52:26.837Z,100.30
2024-04-23T07:53:26.882Z,103.20
2024-04-23T07:54:26.896Z,107.16
2024-04-23T07:55:27.292Z,113.52
2024-04-23T07:56:26.939Z,117.77
2024-04-23T07:57:27.690Z,128.35
2024-04-23T07:58:27.023Z,129.11
2024-04-23T07:59:27.052Z,138.63
2024-04-23T08:00:27.268Z,141.49
2024-04-23T08:01:27.102Z,138.70
2024-04-23T08:02:27.264Z,143.08
2024-04-23T08:03:27.275Z,139.61
2024-04-23T08:04:27.363Z,145.06
2024-04-23T08:05:27.501Z,148.99
2024-04-23T08:06:27.587Z,146.50
2024-04-23T08:07:27.699Z,142.59
2024-04-23T08:08:27.798Z,140.04
2024-04-23T08:09:27.909Z,143.86
2024-04-23T08:10:27.998Z,142.64
2024-04-23T08:11:28.182Z,145.59
2024-04-23T08:12:28.238Z,146.89
2024-04-23T08:13:28.374Z,148.17
2024-04-23T08:14:28.474Z,147.60
2024-04-23T08:15:28.567Z,149.59
2024-04-23T08:16:28.691Z,155.66
2024-04-23T08:17:28.885Z,159.97
2024-04-23T08:18:28.903Z,162.11
2024-04-23T08:19:28.922Z,159.69
2024-04-23T08:20:29.004Z,162.01
2024-04-23T08:21:29.106Z,163.64
2024-04-23T08:22:29.188Z,161.60
2024-04-23T08:23:29.299Z,162.36
2024-04-23T08:24:29.366Z,163.38
2024-04-23T08:25:29.482Z,166.93
2024-04-23T08:26:29.575Z,168.54
2024-04-23T08:27:29.634Z,171.17
2024-04-23T08:28:29.840Z,172.13
2024-04-23T08:29:29.858Z,173.11
2024-04-23T08:30:30.398Z,171.00
2024-04-23T08:31:30.001Z,169.01
2024-04-23T08:32:31.046Z,167.69
2024-04-23T08:33:30.254Z,166.53
2024-04-23T08:34:30.853Z,168.25
2024-04-23T08:35:30.810Z,166.72
2024-04-23T08:36:30.471Z,159.89
2024-04-23T08:37:30.612Z,157.06
2024-04-23T08:38:31.179Z,150.14
2024-04-23T08:39:30.766Z,148.24
2024-04-23T08:40:30.937Z,172.49
2024-04-23T08:41:31.037Z,171.71
2024-04-23T08:42:31.555Z,160.26
2024-04-23T08:43:31.257Z,154.20
2024-04-23T08:44:31.322Z,149.54
2024-04-23T08:45:31.816Z,143.71
2024-04-23T08:47:18.397Z,50.00
2024-04-23T08:48:18.269Z,50.00
2024-04-23T08:49:18.190Z,50.00
2024-04-23T08:50:18.216Z,50.00
2024-04-23T08:51:18.339Z,50.00
2024-04-23T08:52:18.239Z,50.30
2024-04-23T08:53:18.271Z,53.28
2024-04-23T08:54:19.319Z,50.00
2024-04-23T08:55:18.245Z,50.00
2024-04-23T08:56:18.317Z,51.53
2024-04-23T08:57:18.340Z,50.29
2024-04-23T08:58:18.330Z,50.47
2024-04-23T08:59:18.408Z,50.90
2024-04-23T09:00:18.416Z,52.74
2024-04-23T09:01:18.489Z,50.81
2024-04-23T09:02:18.534Z,50.68
2024-04-23T09:03:52.848Z,50.00
2024-04-23T09:04:52.902Z,50.00
2024-04-23T09:05:52.898Z,50.00
2024-04-23T09:06:52.876Z,50.00
2024-04-23T09:07:52.929Z,50.00
2024-04-23T09:08:52.917Z,51.50
2024-04-23T09:09:52.854Z,51.56
2024-04-23T09:10:52.879Z,50.96
2024-04-23T09:11:52.919Z,52.88
2024-04-23T09:12:52.887Z,50.00
2024-04-23T09:13:52.966Z,50.56
2024-04-23T09:14:52.898Z,51.10
2024-04-23T09:15:52.917Z,51.46
2024-04-23T09:16:54.717Z,50.00
2024-04-23T09:17:52.930Z,51.77
2024-04-23T09:18:52.965Z,51.67
2024-04-23T09:19:52.962Z,51.80
2024-04-23T09:20:52.955Z,51.15
2024-04-23T09:21:52.953Z,52.13
2024-04-23T09:22:53.009Z,52.49
2024-04-23T09:23:52.923Z,50.55
2024-04-23T09:24:52.997Z,50.59
2024-04-23T09:25:52.984Z,50.28
2024-04-23T09:26:52.968Z,51.91
2024-04-23T09:27:53.002Z,50.40
2024-04-23T09:28:52.979Z,51.43
2024-04-23T09:29:52.945Z,51.25
2024-04-23T09:30:53.000Z,50.00
2024-04-23T09:31:53.078Z,50.93
2024-04-23T09:32:53.127Z,50.59
2024-04-23T09:33:52.975Z,51.38
2024-04-23T09:34:52.993Z,50.55
2024-04-23T09:35:52.956Z,50.00
2024-04-23T09:36:53.512Z,52.21
2024-04-23T09:37:52.968Z,50.23
2024-04-23T09:38:52.970Z,50.69
2024-04-23T09:39:52.965Z,50.00
2024-04-23T09:40:52.982Z,51.37
2024-04-23T09:41:52.986Z,50.00
2024-04-23T09:42:52.990Z,51.01
2024-04-23T09:43:53.019Z,53.48
2024-04-23T09:44:52.999Z,50.15
2024-04-23T09:45:53.009Z,50.28
2024-04-23T09:46:53.027Z,50.43
2024-04-23T09:47:53.058Z,51.34
2024-04-23T09:48:53.071Z,51.13
2024-04-23T09:49:55.105Z,50.43
2024-04-23T09:50:52.978Z,51.66
2024-04-23T09:51:53.510Z,53.11
2024-04-23T09:52:53.054Z,50.84
2024-04-23T09:53:53.007Z,50.48
2024-04-23T09:54:53.066Z,50.73
2024-04-23T09:55:53.114Z,51.39
2024-04-23T09:56:53.484Z,51.90
2024-04-23T09:57:53.183Z,52.78
2024-04-23T09:58:53.286Z,52.54
2024-04-23T09:59:53.302Z,51.14
2024-04-23T10:00:53.365Z,51.45
2024-04-23T10:01:53.423Z,51.28
2024-04-23T10:02:53.483Z,51.27
2024-04-23T10:03:53.518Z,51.61
2024-04-23T10:04:53.583Z,51.12
2024-04-23T10:05:53.592Z,51.36
2024-04-23T10:06:53.652Z,50.08
2024-04-23T10:07:53.744Z,50.51
2024-04-23T10:08:53.827Z,53.31
2024-04-23T10:09:53.937Z,52.15
2024-04-23T10:10:54.078Z,52.64
2024-04-23T10:11:54.202Z,50.65
2024-04-23T10:12:54.269Z,50.51
2024-04-23T10:13:54.349Z,52.50
2024-04-23T10:14:54.401Z,51.08
2024-04-23T10:15:54.542Z,51.99
2024-04-23T10:16:54.671Z,51.92
2024-04-23T10:17:54.903Z,51.70
2024-04-23T10:18:54.875Z,50.88
2024-04-23T10:19:54.929Z,50.50
2024-04-23T10:20:55.042Z,51.50
2024-04-23T10:21:55.121Z,53.76
2024-04-23T10:22:55.291Z,52.84
2024-04-23T10:23:55.326Z,54.01
2024-04-23T10:24:55.425Z,52.07
2024-04-23T10:25:55.550Z,53.62
2024-04-23T10:26:55.621Z,51.44
2024-04-23T10:27:55.753Z,51.46
2024-04-23T10:28:55.836Z,52.55
2024-04-23T10:29:55.964Z,51.32
2024-04-23T10:30:56.018Z,52.53
2024-04-23T10:31:56.144Z,51.97
2024-04-23T10:32:56.320Z,51.30
2024-04-23T10:33:56.314Z,53.52
2024-04-23T10:34:56.491Z,50.00
2024-04-23T10:35:56.530Z,50.74
2024-04-23T10:36:56.632Z,52.10
2024-04-23T10:37:56.846Z,53.24
2024-04-23T10:38:56.852Z,53.11
2024-04-23T10:39:56.975Z,50.00
2024-04-23T10:40:58.938Z,53.65
2024-04-23T10:41:57.155Z,49.67
2024-04-23T10:42:57.176Z,53.34
2024-04-23T10:43:57.303Z,50.75
2024-04-23T10:44:58.015Z,50.31
2024-04-23T10:45:57.435Z,51.00
2024-04-23T10:46:57.462Z,51.85
2024-04-23T10:47:59.438Z,50.76
2024-04-23T10:48:57.548Z,51.11
2024-04-23T10:49:57.642Z,50.00
2024-04-23T10:50:57.672Z,52.02
2024-04-23T10:51:57.789Z,50.79
2024-04-23T10:52:57.806Z,50.55
2024-04-23T10:53:57.874Z,50.00
2024-04-23T10:54:57.984Z,52.33
2024-04-23T10:55:58.118Z,52.08
2024-04-23T10:56:58.935Z,50.90
2024-04-23T10:57:58.254Z,50.09
2024-04-23T10:58:58.322Z,50.93
2024-04-23T10:59:58.398Z,50.41
2024-04-23T11:00:58.595Z,50.58
2024-04-23T11:01:58.568Z,72.52
2024-04-23T11:02:58.652Z,61.76
2024-04-23T11:03:58.797Z,80.53
2024-04-23T11:04:58.818Z,96.12
2024-04-23T11:05:58.815Z,92.25
2024-04-23T11:06:58.684Z,117.99
2024-04-23T11:07:58.752Z,133.23
2024-04-23T11:08:58.778Z,152.35
2024-04-23T11:09:58.850Z,157.32
2024-04-23T11:10:59.002Z,165.25
2024-04-23T11:11:59.517Z,172.87
2024-04-23T11:12:59.148Z,184.83
2024-04-23T11:13:59.277Z,185.31
2024-04-23T11:14:59.344Z,196.30
2024-04-23T11:15:59.442Z,199.36
2024-04-23T11:16:59.555Z,196.75
2024-04-23T11:17:59.745Z,201.90
2024-04-23T11:18:59.755Z,204.05
2024-04-23T11:19:59.838Z,199.54
2024-04-23T11:20:59.970Z,199.96
2024-04-23T11:22:00.076Z,199.16
2024-04-23T11:23:00.121Z,200.00
2024-04-23T11:24:00.166Z,200.00
2024-04-23T11:25:00.306Z,199.62
2024-04-23T11:26:00.379Z,196.96
2024-04-23T11:27:00.610Z,199.30
2024-04-23T11:28:00.502Z,193.85
2024-04-23T11:29:00.662Z,188.21
2024-04-23T11:30:00.752Z,186.09
2024-04-23T11:31:00.743Z,183.21
2024-04-23T11:32:01.266Z,181.28
2024-04-23T11:33:01.025Z,177.14
2024-04-23T11:34:00.935Z,172.91
2024-04-23T11:35:01.094Z,171.16
2024-04-23T11:36:01.151Z,169.18
2024-04-23T11:37:01.567Z,167.77
2024-04-23T11:38:01.473Z,167.03
2024-04-23T11:39:01.575Z,164.39
2024-04-23T11:40:01.739Z,160.46
2024-04-23T11:41:01.731Z,159.48
2024-04-23T11:42:01.799Z,154.32
2024-04-23T11:43:01.935Z,149.89
2024-04-23T11:44:02.063Z,149.51
2024-04-23T11:45:02.147Z,148.99
2024-04-23T11:46:02.271Z,143.57
2024-04-23T11:47:02.661Z,143.19
2024-04-23T11:48:02.663Z,140.86
2024-04-23T11:49:02.617Z,140.06
2024-04-23T11:50:02.884Z,138.30
2024-04-23T11:51:02.844Z,135.94
2024-04-23T11:52:03.801Z,135.47
2024-04-23T11:53:03.084Z,133.72
2024-04-23T11:54:03.036Z,132.74
2024-04-23T11:55:03.040Z,130.30
2024-04-23T11:56:03.150Z,129.83
2024-04-23T11:57:03.180Z,128.04
2024-04-23T11:58:03.269Z,126.04
2024-04-23T11:59:03.453Z,125.54
2024-04-23T12:00:03.512Z,124.89
2024-04-23T12:01:03.664Z,122.48
2024-04-23T12:02:03.776Z,122.06
2024-04-23T12:03:03.830Z,121.18
2024-04-23T12:04:03.977Z,119.15
2024-04-23T12:05:04.256Z,118.64
2024-04-23T12:06:04.266Z,115.96
2024-04-23T12:07:04.314Z,114.18
2024-04-23T12:08:04.512Z,113.79
2024-04-23T12:09:04.537Z,111.71
2024-04-23T12:10:04.647Z,111.39
2024-04-23T12:11:04.853Z,109.41
2024-04-23T12:12:04.935Z,106.68
2024-04-23T12:13:04.981Z,107.40
2024-04-23T12:14:05.198Z,106.03
2024-04-23T12:15:05.209Z,104.23
2024-04-23T12:16:05.373Z,103.49
2024-04-23T12:17:05.530Z,102.38
2024-04-23T12:18:05.526Z,101.02
2024-04-23T12:19:05.598Z,98.79
2024-04-23T12:20:05.767Z,99.06
2024-04-23T12:21:05.882Z,97.25
2024-04-23T12:22:05.976Z,97.38
2024-04-23T12:23:06.158Z,93.76
2024-04-23T12:24:06.191Z,94.57
2024-04-23T12:25:06.239Z,92.32
2024-04-23T12:26:06.398Z,92.27
2024-04-23T12:27:06.522Z,91.96
2024-04-23T12:28:06.586Z,90.30
2024-04-23T12:29:06.798Z,88.90
2024-04-23T12:30:06.770Z,88.67
2024-04-23T12:31:06.912Z,87.77
2024-04-23T12:32:07.219Z,85.70
2024-04-23T12:33:07.136Z,84.64
2024-04-23T12:34:07.218Z,86.29
2024-04-23T12:35:07.438Z,83.09
2024-04-23T12:36:07.451Z,82.02
2024-04-23T12:37:07.647Z,80.43
2024-04-23T12:38:07.749Z,81.18
2024-04-23T12:39:07.770Z,78.91
2024-04-23T12:40:07.878Z,77.61
2024-04-23T12:41:07.997Z,78.37
2024-04-23T12:42:08.082Z,78.48
2024-04-23T12:43:08.246Z,75.46
2024-04-23T12:44:08.412Z,76.92
2024-04-23T12:45:08.427Z,75.54
2024-04-23T12:46:08.551Z,72.33
2024-04-23T12:47:08.743Z,71.99
2024-04-23T12:48:08.985Z,72.92